sensor_id;sensor_type;location;lat;lon;timestamp;pressure;altitude;pressure_sealevel;temperature
64458;BMP280;58438;51.200;7.252;2023-04-24T02:04:31;96369.53;;;8.92
64458;BMP280;58438;51.200;7.252;2023-04-24T02:07:18;96383.38;;;8.88
64458;BMP280;58438;51.200;7.252;2023-04-24T02:10:06;96357.69;;;8.73
64458;BMP280;58438;51.200;7.252;2023-04-24T02:12:53;96362.91;;;8.76
64458;BMP280;58438;51.200;7.252;2023-04-24T02:15:40;96351.03;;;8.74
64458;BMP280;58438;51.200;7.252;2023-04-24T02:18:27;96353.25;;;8.70
64458;BMP280;58438;51.200;7.252;2023-04-24T02:21:15;96359.66;;;8.67
64458;BMP280;58438;51.200;7.252;2023-04-24T02:24:03;96369.03;;;8.66
64458;BMP280;58438;51.200;7.252;2023-04-24T02:26:50;96369.75;;;8.55
64458;BMP280;58438;51.200;7.252;2023-04-24T02:29:37;96367.03;;;8.61
64458;BMP280;58438;51.200;7.252;2023-04-24T02:32:24;96368.03;;;8.69
64458;BMP280;58438;51.200;7.252;2023-04-24T02:35:11;96381.38;;;8.67
64458;BMP280;58438;51.200;7.252;2023-04-24T02:38:00;96379.88;;;8.55
64458;BMP280;58438;51.200;7.252;2023-04-24T02:40:47;96377.91;;;8.55
64458;BMP280;58438;51.200;7.252;2023-04-24T02:43:34;96393.91;;;8.48
64458;BMP280;58438;51.200;7.252;2023-04-24T02:46:21;96383.31;;;8.45
64458;BMP280;58438;51.200;7.252;2023-04-24T02:49:08;96391.16;;;8.37
64458;BMP280;58438;51.200;7.252;2023-04-24T02:51:57;96413.59;;;8.32
64458;BMP280;58438;51.200;7.252;2023-04-24T02:54:46;96403.69;;;8.29
64458;BMP280;58438;51.200;7.252;2023-04-24T02:57:33;96397.03;;;8.30
64458;BMP280;58438;51.200;7.252;2023-04-24T03:00:21;96397.81;;;8.31
64458;BMP280;58438;51.200;7.252;2023-04-24T03:03:08;96392.63;;;8.27
64458;BMP280;58438;51.200;7.252;2023-04-24T03:05:56;96400.25;;;8.29
64458;BMP280;58438;51.200;7.252;2023-04-24T03:08:44;96398.31;;;8.35
64458;BMP280;58438;51.200;7.252;2023-04-24T03:11:32;96403.97;;;8.31
64458;BMP280;58438;51.200;7.252;2023-04-24T03:14:19;96406.38;;;8.18
64458;BMP280;58438;51.200;7.252;2023-04-24T03:17:06;96407.34;;;8.15
64458;BMP280;58438;51.200;7.252;2023-04-24T03:19:53;96402.69;;;8.21
64458;BMP280;58438;51.200;7.252;2023-04-24T03:22:41;96408.38;;;8.23
64458;BMP280;58438;51.200;7.252;2023-04-24T03:25:28;96407.09;;;8.19
64458;BMP280;58438;51.200;7.252;2023-04-24T03:28:16;96413.78;;;8.23
64458;BMP280;58438;51.200;7.252;2023-04-24T03:31:04;96409.13;;;8.24
64458;BMP280;58438;51.200;7.252;2023-04-24T03:33:51;96413.28;;;8.19
64458;BMP280;58438;51.200;7.252;2023-04-24T03:36:38;96405.16;;;8.19
64458;BMP280;58438;51.200;7.252;2023-04-24T03:39:25;96411.75;;;8.07
64458;BMP280;58438;51.200;7.252;2023-04-24T03:42:13;96408.75;;;7.94
64458;BMP280;58438;51.200;7.252;2023-04-24T03:45:01;96415.19;;;8.02
64458;BMP280;58438;51.200;7.252;2023-04-24T03:47:49;96418.16;;;8.04
64458;BMP280;58438;51.200;7.252;2023-04-24T03:50:36;96420.63;;;8.02
64458;BMP280;58438;51.200;7.252;2023-04-24T03:53:22;96420.41;;;8.06
64458;BMP280;58438;51.200;7.252;2023-04-24T03:56:10;96412.50;;;8.02
64458;BMP280;58438;51.200;7.252;2023-04-24T03:58:57;96417.16;;;8.07
64458;BMP280;58438;51.200;7.252;2023-04-24T04:01:45;96422.56;;;8.07
64458;BMP280;58438;51.200;7.252;2023-04-24T04:04:33;96415.19;;;8.02
64458;BMP280;58438;51.200;7.252;2023-04-24T04:07:20;96425.50;;;7.98
64458;BMP280;58438;51.200;7.252;2023-04-24T04:10:07;96418.59;;;7.97
64458;BMP280;58438;51.200;7.252;2023-04-24T04:12:55;96422.31;;;7.94
64458;BMP280;58438;51.200;7.252;2023-04-24T04:15:42;96418.84;;;7.94
64458;BMP280;58438;51.200;7.252;2023-04-24T04:21:20;96419.84;;;7.96
64458;BMP280;58438;51.200;7.252;2023-04-24T04:24:08;96427.44;;;7.92
64458;BMP280;58438;51.200;7.252;2023-04-24T04:26:55;96428.16;;;7.82
64458;BMP280;58438;51.200;7.252;2023-04-24T04:29:44;96427.66;;;7.83
64458;BMP280;58438;51.200;7.252;2023-04-24T04:32:31;96426.94;;;7.88
64458;BMP280;58438;51.200;7.252;2023-04-24T04:35:20;96428.91;;;7.88
64458;BMP280;58438;51.200;7.252;2023-04-24T04:38:09;96432.28;;;7.77
64458;BMP280;58438;51.200;7.252;2023-04-24T04:40:57;96438.50;;;7.83
64458;BMP280;58438;51.200;7.252;2023-04-24T04:43:44;96440.41;;;7.77
64458;BMP280;58438;51.200;7.252;2023-04-24T04:46:32;96443.91;;;7.83
64458;BMP280;58438;51.200;7.252;2023-04-24T04:49:20;96443.66;;;7.81
64458;BMP280;58438;51.200;7.252;2023-04-24T04:52:07;96449.81;;;7.82
64458;BMP280;58438;51.200;7.252;2023-04-24T04:54:56;96446.09;;;7.79
64458;BMP280;58438;51.200;7.252;2023-04-24T04:57:43;96446.03;;;7.68
64458;BMP280;58438;51.200;7.252;2023-04-24T05:00:31;96441.88;;;7.73
64458;BMP280;58438;51.200;7.252;2023-04-24T05:03:21;96439.22;;;7.78
64458;BMP280;58438;51.200;7.252;2023-04-24T05:06:09;96443.63;;;7.76
64458;BMP280;58438;51.200;7.252;2023-04-24T05:08:56;96438.69;;;7.74
64458;BMP280;58438;51.200;7.252;2023-04-24T05:11:45;96458.63;;;7.71
64458;BMP280;58438;51.200;7.252;2023-04-24T05:14:32;96453.94;;;7.72
64458;BMP280;58438;51.200;7.252;2023-04-24T05:17:19;96444.06;;;7.69
64458;BMP280;58438;51.200;7.252;2023-04-24T05:20:07;96439.56;;;7.60
64458;BMP280;58438;51.200;7.252;2023-04-24T05:22:55;96446.97;;;7.60
64458;BMP280;58438;51.200;7.252;2023-04-24T05:25:42;96457.59;;;7.63
64458;BMP280;58438;51.200;7.252;2023-04-24T05:28:31;96453.13;;;7.60
64458;BMP280;58438;51.200;7.252;2023-04-24T05:31:18;96454.78;;;7.52
64458;BMP280;58438;51.200;7.252;2023-04-24T05:34:05;96442.75;;;7.53
64458;BMP280;58438;51.200;7.252;2023-04-24T05:36:52;96460.31;;;7.63
64458;BMP280;58438;51.200;7.252;2023-04-24T05:39:40;96458.22;;;7.47
64458;BMP280;58438;51.200;7.252;2023-04-24T05:42:28;96455.16;;;7.34
64458;BMP280;58438;51.200;7.252;2023-04-24T05:45:16;96466.50;;;7.38
64458;BMP280;58438;51.200;7.252;2023-04-24T05:48:03;96463.06;;;7.43
64458;BMP280;58438;51.200;7.252;2023-04-24T05:50:51;96456.22;;;7.42
64458;BMP280;58438;51.200;7.252;2023-04-24T05:53:39;96467.91;;;7.34
64458;BMP280;58438;51.200;7.252;2023-04-24T05:56:26;96466.66;;;7.29
64458;BMP280;58438;51.200;7.252;2023-04-24T05:59:13;96465.00;;;7.37
64458;BMP280;58438;51.200;7.252;2023-04-24T06:02:02;96469.91;;;7.33
64458;BMP280;58438;51.200;7.252;2023-04-24T06:04:50;96481.44;;;7.28
64458;BMP280;58438;51.200;7.252;2023-04-24T06:07:39;96470.88;;;7.30
64458;BMP280;58438;51.200;7.252;2023-04-24T06:10:27;96469.69;;;7.37
64458;BMP280;58438;51.200;7.252;2023-04-24T06:13:15;96470.44;;;7.43
64458;BMP280;58438;51.200;7.252;2023-04-24T06:16:02;96475.84;;;7.37
64458;BMP280;58438;51.200;7.252;2023-04-24T06:18:50;96483.91;;;7.32
64458;BMP280;58438;51.200;7.252;2023-04-24T06:21:38;96481.16;;;7.26
64458;BMP280;58438;51.200;7.252;2023-04-24T06:24:28;96478.75;;;7.34
64458;BMP280;58438;51.200;7.252;2023-04-24T06:27:15;96472.25;;;7.20
64458;BMP280;58438;51.200;7.252;2023-04-24T06:30:03;96465.88;;;7.23
64458;BMP280;58438;51.200;7.252;2023-04-24T06:32:51;96466.16;;;7.25
64458;BMP280;58438;51.200;7.252;2023-04-24T06:35:39;96466.31;;;7.16
64458;BMP280;58438;51.200;7.252;2023-04-24T06:38:27;96468.78;;;7.20
64458;BMP280;58438;51.200;7.252;2023-04-24T06:41:15;96474.72;;;7.18
64458;BMP280;58438;51.200;7.252;2023-04-24T06:44:02;96472.16;;;7.09
64458;BMP280;58438;51.200;7.252;2023-04-24T06:46:49;96467.69;;;7.06
64458;BMP280;58438;51.200;7.252;2023-04-24T06:49:37;96480.41;;;7.00
64458;BMP280;58438;51.200;7.252;2023-04-24T06:52:25;96469.69;;;7.11
64458;BMP280;58438;51.200;7.252;2023-04-24T06:55:12;96463.91;;;6.98
64458;BMP280;58438;51.200;7.252;2023-04-24T06:58:01;96474.34;;;7.05
64458;BMP280;58438;51.200;7.252;2023-04-24T07:00:48;96481.47;;;7.08
64458;BMP280;58438;51.200;7.252;2023-04-24T07:03:35;96469.69;;;7.06
64458;BMP280;58438;51.200;7.252;2023-04-24T07:06:23;96466.69;;;7.04
64458;BMP280;58438;51.200;7.252;2023-04-24T07:09:11;96460.47;;;6.98
64458;BMP280;58438;51.200;7.252;2023-04-24T07:11:59;96468.59;;;6.98
64458;BMP280;58438;51.200;7.252;2023-04-24T07:14:46;96467.50;;;6.90
64458;BMP280;58438;51.200;7.252;2023-04-24T07:17:33;96454.09;;;7.01
64458;BMP280;58438;51.200;7.252;2023-04-24T07:20:20;96465.84;;;6.92
64458;BMP280;58438;51.200;7.252;2023-04-24T07:23:08;96456.78;;;6.95
64458;BMP280;58438;51.200;7.252;2023-04-24T07:25:56;96457.19;;;6.88
64458;BMP280;58438;51.200;7.252;2023-04-24T07:28:43;96479.84;;;6.91
64458;BMP280;58438;51.200;7.252;2023-04-24T07:31:31;96467.69;;;6.81
64458;BMP280;58438;51.200;7.252;2023-04-24T07:34:18;96479.56;;;6.89
64458;BMP280;58438;51.200;7.252;2023-04-24T07:37:05;96469.50;;;6.89
64458;BMP280;58438;51.200;7.252;2023-04-24T07:39:52;96487.09;;;6.80
64458;BMP280;58438;51.200;7.252;2023-04-24T07:42:41;96484.88;;;6.78
64458;BMP280;58438;51.200;7.252;2023-04-24T07:45:29;96485.06;;;6.75
64458;BMP280;58438;51.200;7.252;2023-04-24T07:48:17;96493.72;;;6.79
64458;BMP280;58438;51.200;7.252;2023-04-24T07:51:04;96488.78;;;6.77
64458;BMP280;58438;51.200;7.252;2023-04-24T07:53:51;96500.06;;;6.76
64458;BMP280;58438;51.200;7.252;2023-04-24T07:56:37;96504.41;;;6.68
64458;BMP280;58438;51.200;7.252;2023-04-24T07:59:26;96499.28;;;6.70
64458;BMP280;58438;51.200;7.252;2023-04-24T08:02:13;96510.84;;;6.70
64458;BMP280;58438;51.200;7.252;2023-04-24T08:05:01;96503.94;;;6.69
64458;BMP280;58438;51.200;7.252;2023-04-24T08:07:49;96500.50;;;6.69
64458;BMP280;58438;51.200;7.252;2023-04-24T08:10:36;96508.88;;;6.71
64458;BMP280;58438;51.200;7.252;2023-04-24T08:13:23;96515.88;;;6.63
64458;BMP280;58438;51.200;7.252;2023-04-24T08:16:12;96519.69;;;6.71
64458;BMP280;58438;51.200;7.252;2023-04-24T08:18:59;96529.69;;;6.65
64458;BMP280;58438;51.200;7.252;2023-04-24T08:21:47;96554.22;;;6.41
64458;BMP280;58438;51.200;7.252;2023-04-24T08:24:33;96533.09;;;6.25
64458;BMP280;58438;51.200;7.252;2023-04-24T08:27:20;96550.47;;;6.19
64458;BMP280;58438;51.200;7.252;2023-04-24T08:30:07;96543.59;;;6.18
64458;BMP280;58438;51.200;7.252;2023-04-24T08:32:56;96542.56;;;6.15
64458;BMP280;58438;51.200;7.252;2023-04-24T08:35:44;96540.47;;;6.25
64458;BMP280;58438;51.200;7.252;2023-04-24T08:38:32;96540.66;;;6.21
64458;BMP280;58438;51.200;7.252;2023-04-24T08:41:19;96547.06;;;6.24
64458;BMP280;58438;51.200;7.252;2023-04-24T08:44:07;96540.22;;;6.08
64458;BMP280;58438;51.200;7.252;2023-04-24T08:46:55;96539.22;;;6.06
64458;BMP280;58438;51.200;7.252;2023-04-24T08:49:44;96547.22;;;6.15
64458;BMP280;58438;51.200;7.252;2023-04-24T08:52:32;96565.47;;;6.20
64458;BMP280;58438;51.200;7.252;2023-04-24T08:55:19;96554.41;;;6.18
64458;BMP280;58438;51.200;7.252;2023-04-24T08:58:07;96553.69;;;6.23
64458;BMP280;58438;51.200;7.252;2023-04-24T09:00:55;96554.81;;;6.31
64458;BMP280;58438;51.200;7.252;2023-04-24T09:03:42;96572.50;;;6.32
64458;BMP280;58438;51.200;7.252;2023-04-24T09:06:31;96571.56;;;6.35
64458;BMP280;58438;51.200;7.252;2023-04-24T09:09:19;96592.09;;;6.27
64458;BMP280;58438;51.200;7.252;2023-04-24T09:12:06;96594.69;;;6.21
64458;BMP280;58438;51.200;7.252;2023-04-24T09:14:56;96598.41;;;6.24
64458;BMP280;58438;51.200;7.252;2023-04-24T09:17:43;96602.91;;;6.27
64458;BMP280;58438;51.200;7.252;2023-04-24T09:20:30;96609.22;;;6.24
64458;BMP280;58438;51.200;7.252;2023-04-24T09:23:19;96616.50;;;6.32
64458;BMP280;58438;51.200;7.252;2023-04-24T09:26:07;96615.28;;;6.33
64458;BMP280;58438;51.200;7.252;2023-04-24T09:28:56;96623.66;;;6.35
64458;BMP280;58438;51.200;7.252;2023-04-24T09:31:43;96622.25;;;6.40
64458;BMP280;58438;51.200;7.252;2023-04-24T09:34:30;96643.69;;;6.43
64458;BMP280;58438;51.200;7.252;2023-04-24T09:37:27;96647.63;;;6.28
64458;BMP280;58438;51.200;7.252;2023-04-24T09:40:17;96665.06;;;6.27
64458;BMP280;58438;51.200;7.252;2023-04-24T09:43:05;96669.38;;;6.19
64458;BMP280;58438;51.200;7.252;2023-04-24T09:45:57;96664.59;;;6.14
64458;BMP280;58438;51.200;7.252;2023-04-24T09:48:45;96676.88;;;6.15
64458;BMP280;58438;51.200;7.252;2023-04-24T09:51:33;96689.78;;;6.20
64458;BMP280;58438;51.200;7.252;2023-04-24T09:54:21;96704.75;;;6.21
64458;BMP280;58438;51.200;7.252;2023-04-24T09:57:10;96703.00;;;6.18
64458;BMP280;58438;51.200;7.252;2023-04-24T09:59:58;96710.06;;;6.15
64458;BMP280;58438;51.200;7.252;2023-04-24T10:02:49;96714.53;;;6.18
64458;BMP280;58438;51.200;7.252;2023-04-24T10:05:37;96729.53;;;6.19
64458;BMP280;58438;51.200;7.252;2023-04-24T10:08:24;96720.00;;;6.24
64458;BMP280;58438;51.200;7.252;2023-04-24T10:11:11;96726.63;;;6.23
64458;BMP280;58438;51.200;7.252;2023-04-24T10:14:01;96731.00;;;6.20
64458;BMP280;58438;51.200;7.252;2023-04-24T10:16:48;96737.44;;;6.23
64458;BMP280;58438;51.200;7.252;2023-04-24T10:19:36;96745.81;;;6.25
64458;BMP280;58438;51.200;7.252;2023-04-24T10:22:23;96759.34;;;6.25
64458;BMP280;58438;51.200;7.252;2023-04-24T10:25:11;96761.88;;;6.28
64458;BMP280;58438;51.200;7.252;2023-04-24T10:27:59;96770.28;;;6.30
64458;BMP280;58438;51.200;7.252;2023-04-24T10:30:49;96777.91;;;6.32
64458;BMP280;58438;51.200;7.252;2023-04-24T10:33:36;96775.00;;;6.35
64458;BMP280;58438;51.200;7.252;2023-04-24T10:36:27;96780.97;;;6.39
64458;BMP280;58438;51.200;7.252;2023-04-24T10:39:15;96790.41;;;6.44
64458;BMP280;58438;51.200;7.252;2023-04-24T10:42:02;96799.56;;;6.46
64458;BMP280;58438;51.200;7.252;2023-04-24T10:45:04;96794.16;;;6.46
64458;BMP280;58438;51.200;7.252;2023-04-24T10:47:54;96798.41;;;6.53
64458;BMP280;58438;51.200;7.252;2023-04-24T10:50:43;96796.56;;;6.59
64458;BMP280;58438;51.200;7.252;2023-04-24T10:53:31;96802.59;;;6.54
64458;BMP280;58438;51.200;7.252;2023-04-24T10:56:18;96812.19;;;6.55
64458;BMP280;58438;51.200;7.252;2023-04-24T10:59:07;96816.88;;;6.54
64458;BMP280;58438;51.200;7.252;2023-04-24T11:01:55;96825.44;;;6.53
64458;BMP280;58438;51.200;7.252;2023-04-24T11:04:44;96830.41;;;6.54
64458;BMP280;58438;51.200;7.252;2023-04-24T11:07:39;96833.19;;;6.45
64458;BMP280;58438;51.200;7.252;2023-04-24T11:10:53;96837.75;;;6.39
64458;BMP280;58438;51.200;7.252;2023-04-24T11:16:51;96849.00;;;6.38
64458;BMP280;58438;51.200;7.252;2023-04-24T11:19:39;96847.78;;;6.39
64458;BMP280;58438;51.200;7.252;2023-04-24T11:22:26;96855.06;;;6.47
64458;BMP280;58438;51.200;7.252;2023-04-24T11:25:15;96864.88;;;6.45
64458;BMP280;58438;51.200;7.252;2023-04-24T11:28:05;96864.59;;;6.43
64458;BMP280;58438;51.200;7.252;2023-04-24T11:30:53;96868.78;;;6.44
64458;BMP280;58438;51.200;7.252;2023-04-24T11:33:41;96864.44;;;6.46
64458;BMP280;58438;51.200;7.252;2023-04-24T11:36:28;96878.31;;;6.54
64458;BMP280;58438;51.200;7.252;2023-04-24T11:39:18;96884.19;;;6.67
64458;BMP280;58438;51.200;7.252;2023-04-24T11:42:05;96884.56;;;6.74
64458;BMP280;58438;51.200;7.252;2023-04-24T11:44:55;96888.19;;;6.85
64458;BMP280;58438;51.200;7.252;2023-04-24T11:47:43;96889.63;;;6.81
64458;BMP280;58438;51.200;7.252;2023-04-24T11:50:31;96886.81;;;6.76
64458;BMP280;58438;51.200;7.252;2023-04-24T11:53:18;96890.72;;;6.75
64458;BMP280;58438;51.200;7.252;2023-04-24T11:56:06;96891.09;;;6.68
64458;BMP280;58438;51.200;7.252;2023-04-24T11:58:55;96897.72;;;6.67
64458;BMP280;58438;51.200;7.252;2023-04-24T12:01:44;96903.13;;;6.67
64458;BMP280;58438;51.200;7.252;2023-04-24T12:04:39;96902.50;;;6.72
64458;BMP280;58438;51.200;7.252;2023-04-24T12:07:27;96913.41;;;6.77
64458;BMP280;58438;51.200;7.252;2023-04-24T12:10:19;96917.41;;;6.82
64458;BMP280;58438;51.200;7.252;2023-04-24T12:13:08;96926.38;;;6.88
64458;BMP280;58438;51.200;7.252;2023-04-24T12:15:56;96924.97;;;6.92
64458;BMP280;58438;51.200;7.252;2023-04-24T12:18:45;96924.13;;;7.00
64458;BMP280;58438;51.200;7.252;2023-04-24T12:21:32;96923.38;;;7.14
64458;BMP280;58438;51.200;7.252;2023-04-24T12:24:19;96928.88;;;7.20
64458;BMP280;58438;51.200;7.252;2023-04-24T12:27:07;96930.09;;;7.19
64458;BMP280;58438;51.200;7.252;2023-04-24T12:29:58;96935.69;;;7.15
64458;BMP280;58438;51.200;7.252;2023-04-24T12:32:46;96938.72;;;7.17
64458;BMP280;58438;51.200;7.252;2023-04-24T12:35:34;96934.66;;;7.13
64458;BMP280;58438;51.200;7.252;2023-04-24T12:38:22;96943.53;;;7.13
64458;BMP280;58438;51.200;7.252;2023-04-24T12:41:11;96945.03;;;7.14
64458;BMP280;58438;51.200;7.252;2023-04-24T12:43:58;96946.34;;;7.19
64458;BMP280;58438;51.200;7.252;2023-04-24T12:46:47;96943.44;;;7.22
64458;BMP280;58438;51.200;7.252;2023-04-24T12:49:35;96961.16;;;7.23
64458;BMP280;58438;51.200;7.252;2023-04-24T12:52:24;96958.09;;;7.30
64458;BMP280;58438;51.200;7.252;2023-04-24T12:55:12;96953.03;;;7.52
64458;BMP280;58438;51.200;7.252;2023-04-24T12:57:59;96957.03;;;7.57
64458;BMP280;58438;51.200;7.252;2023-04-24T13:00:47;96956.38;;;7.62
64458;BMP280;58438;51.200;7.252;2023-04-24T13:03:35;96957.31;;;7.59
64458;BMP280;58438;51.200;7.252;2023-04-24T13:06:23;96962.63;;;7.68
64458;BMP280;58438;51.200;7.252;2023-04-24T13:09:11;96963.66;;;7.70
64458;BMP280;58438;51.200;7.252;2023-04-24T13:11:58;96948.72;;;7.75
64458;BMP280;58438;51.200;7.252;2023-04-24T13:14:46;96956.91;;;7.80
64458;BMP280;58438;51.200;7.252;2023-04-24T13:17:34;96960.47;;;7.72
64458;BMP280;58438;51.200;7.252;2023-04-24T13:20:21;96948.13;;;7.71
64458;BMP280;58438;51.200;7.252;2023-04-24T13:23:08;96972.97;;;7.69
64458;BMP280;58438;51.200;7.252;2023-04-24T13:25:57;96961.38;;;7.83
64458;BMP280;58438;51.200;7.252;2023-04-24T13:28:45;96966.38;;;8.05
64458;BMP280;58438;51.200;7.252;2023-04-24T13:31:32;96964.44;;;8.11
64458;BMP280;58438;51.200;7.252;2023-04-24T13:34:19;96974.63;;;8.16
64458;BMP280;58438;51.200;7.252;2023-04-24T13:37:06;96963.97;;;8.12
64458;BMP280;58438;51.200;7.252;2023-04-24T13:39:54;96976.59;;;8.15
64458;BMP280;58438;51.200;7.252;2023-04-24T13:42:42;96964.25;;;8.14
64458;BMP280;58438;51.200;7.252;2023-04-24T13:45:30;96970.75;;;8.22
64458;BMP280;58438;51.200;7.252;2023-04-24T13:48:17;96974.34;;;8.34
64458;BMP280;58438;51.200;7.252;2023-04-24T13:51:04;96969.22;;;8.36
64458;BMP280;58438;51.200;7.252;2023-04-24T13:53:51;96969.41;;;8.32
64458;BMP280;58438;51.200;7.252;2023-04-24T13:56:38;96969.84;;;8.25
64458;BMP280;58438;51.200;7.252;2023-04-24T13:59:28;96981.06;;;8.18
64458;BMP280;58438;51.200;7.252;2023-04-24T14:02:16;96979.19;;;8.24
64458;BMP280;58438;51.200;7.252;2023-04-24T14:05:03;96957.53;;;8.30
64458;BMP280;58438;51.200;7.252;2023-04-24T14:07:52;96977.38;;;8.36
64458;BMP280;58438;51.200;7.252;2023-04-24T14:10:39;96976.13;;;8.37
64458;BMP280;58438;51.200;7.252;2023-04-24T14:13:26;96980.25;;;8.32
64458;BMP280;58438;51.200;7.252;2023-04-24T14:16:15;96976.06;;;8.31
64458;BMP280;58438;51.200;7.252;2023-04-24T14:19:02;96982.91;;;8.27
64458;BMP280;58438;51.200;7.252;2023-04-24T14:21:51;96982.34;;;8.23
64458;BMP280;58438;51.200;7.252;2023-04-24T14:24:38;96983.75;;;8.38
64458;BMP280;58438;51.200;7.252;2023-04-24T14:44:08;97002.38;;;8.25
64458;BMP280;58438;51.200;7.252;2023-04-24T14:46:56;97006.28;;;8.24
64458;BMP280;58438;51.200;7.252;2023-04-24T14:49:43;97005.53;;;8.24
64458;BMP280;58438;51.200;7.252;2023-04-24T14:52:31;97010.28;;;8.29
64458;BMP280;58438;51.200;7.252;2023-04-24T14:55:18;97012.31;;;8.34
64458;BMP280;58438;51.200;7.252;2023-04-24T18:18:52;97088.50;;;8.01
64458;BMP280;58438;51.200;7.252;2023-04-24T18:21:39;97093.34;;;7.97
64458;BMP280;58438;51.200;7.252;2023-04-24T18:24:26;97098.88;;;7.88
64458;BMP280;58438;51.200;7.252;2023-04-24T18:27:13;97096.19;;;7.88
64458;BMP280;58438;51.200;7.252;2023-04-24T18:30:00;97103.19;;;7.80
64458;BMP280;58438;51.200;7.252;2023-04-24T18:32:47;97099.00;;;7.79
64458;BMP280;58438;51.200;7.252;2023-04-24T18:35:37;97109.53;;;7.77
64458;BMP280;58438;51.200;7.252;2023-04-24T18:38:24;97107.41;;;7.81
64458;BMP280;58438;51.200;7.252;2023-04-24T18:41:11;97112.44;;;7.74
64458;BMP280;58438;51.200;7.252;2023-04-24T18:43:59;97111.72;;;7.73
64458;BMP280;58438;51.200;7.252;2023-04-24T18:46:47;97122.66;;;7.64
64458;BMP280;58438;51.200;7.252;2023-04-24T18:49:34;97119.19;;;7.64
64458;BMP280;58438;51.200;7.252;2023-04-24T18:52:23;97131.56;;;7.56
64458;BMP280;58438;51.200;7.252;2023-04-24T18:55:10;97136.66;;;7.63
64458;BMP280;58438;51.200;7.252;2023-04-24T18:57:57;97132.44;;;7.62
64458;BMP280;58438;51.200;7.252;2023-04-24T19:00:44;97135.41;;;7.49
64458;BMP280;58438;51.200;7.252;2023-04-24T19:03:31;97132.13;;;7.45
64458;BMP280;58438;51.200;7.252;2023-04-24T19:06:19;97140.66;;;7.53
64458;BMP280;58438;51.200;7.252;2023-04-24T19:09:08;97140.28;;;7.60
64458;BMP280;58438;51.200;7.252;2023-04-24T19:11:55;97141.03;;;7.60
64458;BMP280;58438;51.200;7.252;2023-04-24T19:14:42;97150.97;;;7.54
64458;BMP280;58438;51.200;7.252;2023-04-24T19:17:30;97150.28;;;7.54
64458;BMP280;58438;51.200;7.252;2023-04-24T19:20:17;97148.19;;;7.49
64458;BMP280;58438;51.200;7.252;2023-04-24T19:23:04;97147.47;;;7.48
64458;BMP280;58438;51.200;7.252;2023-04-24T19:25:53;97154.75;;;7.42
64458;BMP280;58438;51.200;7.252;2023-04-24T19:28:40;97158.06;;;7.37
64458;BMP280;58438;51.200;7.252;2023-04-24T19:31:27;97152.03;;;7.42
64458;BMP280;58438;51.200;7.252;2023-04-24T19:34:14;97157.63;;;7.39
64458;BMP280;58438;51.200;7.252;2023-04-24T19:37:02;97162.75;;;7.37
64458;BMP280;58438;51.200;7.252;2023-04-24T19:39:49;97165.63;;;7.33
64458;BMP280;58438;51.200;7.252;2023-04-24T19:42:38;97160.50;;;7.35
64458;BMP280;58438;51.200;7.252;2023-04-24T19:45:29;97165.91;;;7.35
64458;BMP280;58438;51.200;7.252;2023-04-24T19:48:16;97159.00;;;7.34
64458;BMP280;58438;51.200;7.252;2023-04-24T19:51:03;97154.50;;;7.31
64458;BMP280;58438;51.200;7.252;2023-04-24T19:53:51;97154.28;;;7.20
64458;BMP280;58438;51.200;7.252;2023-04-24T19:56:38;97155.44;;;7.28
64458;BMP280;58438;51.200;7.252;2023-04-24T19:59:27;97156.22;;;7.29
64458;BMP280;58438;51.200;7.252;2023-04-24T20:02:14;97158.44;;;7.30
64458;BMP280;58438;51.200;7.252;2023-04-24T20:05:01;97155.91;;;7.27
64458;BMP280;58438;51.200;7.252;2023-04-24T20:07:49;97158.72;;;7.09
64458;BMP280;58438;51.200;7.252;2023-04-24T20:10:36;97150.16;;;7.10
64458;BMP280;58438;51.200;7.252;2023-04-24T20:13:24;97151.56;;;7.06
64458;BMP280;58438;51.200;7.252;2023-04-24T20:16:14;97159.78;;;7.11
64458;BMP280;58438;51.200;7.252;2023-04-24T20:19:01;97155.09;;;7.12
64458;BMP280;58438;51.200;7.252;2023-04-24T20:21:48;97160.22;;;7.10
64458;BMP280;58438;51.200;7.252;2023-04-24T20:24:35;97157.50;;;7.10
64458;BMP280;58438;51.200;7.252;2023-04-24T20:27:23;97154.06;;;7.09
64458;BMP280;58438;51.200;7.252;2023-04-24T20:30:10;97154.59;;;6.99
64458;BMP280;58438;51.200;7.252;2023-04-24T20:33:00;97157.00;;;6.97
64458;BMP280;58438;51.200;7.252;2023-04-24T20:35:48;97155.81;;;6.98
64458;BMP280;58438;51.200;7.252;2023-04-24T20:38:37;97166.66;;;6.89
64458;BMP280;58438;51.200;7.252;2023-04-24T20:41:24;97161.56;;;6.91
64458;BMP280;58438;51.200;7.252;2023-04-24T20:44:12;97172.69;;;6.93
64458;BMP280;58438;51.200;7.252;2023-04-24T20:46:59;97167.03;;;6.82
64458;BMP280;58438;51.200;7.252;2023-04-24T20:49:48;97171.50;;;6.85
64458;BMP280;58438;51.200;7.252;2023-04-24T20:52:35;97169.44;;;6.80
64458;BMP280;58438;51.200;7.252;2023-04-24T20:55:23;97169.50;;;6.71
64458;BMP280;58438;51.200;7.252;2023-04-24T20:58:10;97177.13;;;6.73
64458;BMP280;58438;51.200;7.252;2023-04-24T21:00:57;97174.66;;;6.60
64458;BMP280;58438;51.200;7.252;2023-04-24T21:03:45;97171.81;;;6.55
64458;BMP280;58438;51.200;7.252;2023-04-24T21:06:34;97178.28;;;6.57
64458;BMP280;58438;51.200;7.252;2023-04-24T21:09:21;97178.09;;;6.61
64458;BMP280;58438;51.200;7.252;2023-04-24T21:12:08;97173.63;;;6.58
64458;BMP280;58438;51.200;7.252;2023-04-24T21:14:55;97182.19;;;6.56
64458;BMP280;58438;51.200;7.252;2023-04-24T21:17:42;97184.59;;;6.54
64458;BMP280;58438;51.200;7.252;2023-04-24T21:20:30;97175.31;;;6.46
64458;BMP280;58438;51.200;7.252;2023-04-24T21:23:19;97173.66;;;6.49
64458;BMP280;58438;51.200;7.252;2023-04-24T21:26:06;97174.81;;;6.48
64458;BMP280;58438;51.200;7.252;2023-04-24T21:28:53;97166.56;;;6.51
64458;BMP280;58438;51.200;7.252;2023-04-24T21:31:40;97165.38;;;6.52
64458;BMP280;58438;51.200;7.252;2023-04-24T21:34:27;97154.91;;;6.45
64458;BMP280;58438;51.200;7.252;2023-04-24T21:37:15;97160.41;;;6.51
64458;BMP280;58438;51.200;7.252;2023-04-24T21:40:04;97166.44;;;6.46
64458;BMP280;58438;51.200;7.252;2023-04-24T21:42:51;97165.41;;;6.43
64458;BMP280;58438;51.200;7.252;2023-04-24T21:45:38;97163.00;;;6.36
64458;BMP280;58438;51.200;7.252;2023-04-24T21:48:25;97168.56;;;6.42
64458;BMP280;58438;51.200;7.252;2023-04-24T21:51:12;97163.16;;;6.42
64458;BMP280;58438;51.200;7.252;2023-04-24T21:54:01;97166.81;;;6.30
64458;BMP280;58438;51.200;7.252;2023-04-24T21:56:50;97155.41;;;6.26
64458;BMP280;58438;51.200;7.252;2023-04-24T21:59:37;97163.97;;;6.24
64458;BMP280;58438;51.200;7.252;2023-04-24T22:02:25;97159.03;;;6.14
64458;BMP280;58438;51.200;7.252;2023-04-24T22:05:12;97159.00;;;6.23
64458;BMP280;58438;51.200;7.252;2023-04-24T22:08:03;97155.44;;;6.17